sensor_id;sensor_type;location;lat;lon;timestamp;P1;durP1;ratioP1;P2;durP2;ratioP2
22068;SDS011;13887;57.196;-2.100;2023-11-21T00:01:04;14.50;;;14.00;;
22068;SDS011;13887;57.196;-2.100;2023-11-21T00:03:31;14.27;;;13.77;;
22068;SDS011;13887;57.196;-2.100;2023-11-21T00:05:58;14.40;;;13.90;;
22068;SDS011;13887;57.196;-2.100;2023-11-21T00:08:26;14.57;;;14.07;;
22068;SDS011;13887;57.196;-2.100;2023-11-21T00:10:54;14.70;;;14.20;;
22068;SDS011;13887;57.196;-2.100;2023-11-21T00:13:21;14.70;;;14.20;;
22068;SDS011;13887;57.196;-2.100;2023-11-21T00:15:47;14.77;;;14.27;;
22068;SDS011;13887;57.196;-2.100;2023-11-21T00:18:14;14.80;;;14.30;;
22068;SDS011;13887;57.196;-2.100;2023-11-21T00:20:41;14.90;;;14.40;;
22068;SDS011;13887;57.196;-2.100;2023-11-21T00:23:08;14.87;;;14.37;;
22068;SDS011;13887;57.196;-2.100;2023-11-21T00:25:36;15.00;;;14.50;;
22068;SDS011;13887;57.196;-2.100;2023-11-21T00:28:02;14.70;;;14.20;;
22068;SDS011;13887;57.196;-2.100;2023-11-21T00:30:30;14.63;;;14.13;;
22068;SDS011;13887;57.196;-2.100;2023-11-21T00:32:57;14.37;;;13.87;;
22068;SDS011;13887;57.196;-2.100;2023-11-21T00:35:24;14.33;;;13.83;;
22068;SDS011;13887;57.196;-2.100;2023-11-21T00:37:51;14.60;;;14.10;;
22068;SDS011;13887;57.196;-2.100;2023-11-21T00:40:18;14.53;;;14.03;;
22068;SDS011;13887;57.196;-2.100;2023-11-21T00:42:48;14.37;;;13.87;;
22068;SDS011;13887;57.196;-2.100;2023-11-21T00:45:15;14.90;;;14.40;;
22068;SDS011;13887;57.196;-2.100;2023-11-21T00:47:42;14.60;;;14.10;;
22068;SDS011;13887;57.196;-2.100;2023-11-21T00:50:09;14.90;;;14.40;;
22068;SDS011;13887;57.196;-2.100;2023-11-21T00:52:36;14.57;;;14.07;;
22068;SDS011;13887;57.196;-2.100;2023-11-21T00:55:03;14.40;;;13.90;;
22068;SDS011;13887;57.196;-2.100;2023-11-21T00:57:31;14.70;;;14.20;;
22068;SDS011;13887;57.196;-2.100;2023-11-21T00:59:57;14.50;;;14.00;;
22068;SDS011;13887;57.196;-2.100;2023-11-21T01:02:24;14.77;;;14.27;;
22068;SDS011;13887;57.196;-2.100;2023-11-21T01:04:52;14.60;;;14.10;;
22068;SDS011;13887;57.196;-2.100;2023-11-21T01:07:19;14.33;;;13.83;;
22068;SDS011;13887;57.196;-2.100;2023-11-21T01:09:46;14.67;;;14.17;;
22068;SDS011;13887;57.196;-2.100;2023-11-21T01:12:13;14.57;;;14.07;;
22068;SDS011;13887;57.196;-2.100;2023-11-21T01:14:40;14.63;;;14.13;;
22068;SDS011;13887;57.196;-2.100;2023-11-21T01:17:07;14.70;;;14.20;;
22068;SDS011;13887;57.196;-2.100;2023-11-21T01:19:33;14.57;;;14.07;;
22068;SDS011;13887;57.196;-2.100;2023-11-21T01:22:00;14.73;;;14.23;;
22068;SDS011;13887;57.196;-2.100;2023-11-21T01:24:28;14.80;;;14.30;;
22068;SDS011;13887;57.196;-2.100;2023-11-21T01:26:55;14.67;;;14.17;;
22068;SDS011;13887;57.196;-2.100;2023-11-21T01:29:22;14.57;;;14.07;;
22068;SDS011;13887;57.196;-2.100;2023-11-21T01:31:49;14.60;;;14.10;;
22068;SDS011;13887;57.196;-2.100;2023-11-21T01:34:16;14.60;;;14.10;;
22068;SDS011;13887;57.196;-2.100;2023-11-21T01:36:42;14.37;;;13.87;;
22068;SDS011;13887;57.196;-2.100;2023-11-21T01:39:10;14.30;;;13.80;;
22068;SDS011;13887;57.196;-2.100;2023-11-21T01:41:41;14.37;;;13.87;;
22068;SDS011;13887;57.196;-2.100;2023-11-21T01:44:10;14.27;;;13.77;;
22068;SDS011;13887;57.196;-2.100;2023-11-21T01:46:36;14.53;;;14.03;;
22068;SDS011;13887;57.196;-2.100;2023-11-21T01:49:04;14.10;;;13.60;;
22068;SDS011;13887;57.196;-2.100;2023-11-21T01:51:31;14.33;;;13.83;;
22068;SDS011;13887;57.196;-2.100;2023-11-21T01:53:59;14.27;;;13.77;;
22068;SDS011;13887;57.196;-2.100;2023-11-21T01:56:25;14.60;;;14.10;;
22068;SDS011;13887;57.196;-2.100;2023-11-21T01:58:52;14.37;;;13.87;;
22068;SDS011;13887;57.196;-2.100;2023-11-21T02:01:20;14.73;;;14.23;;
22068;SDS011;13887;57.196;-2.100;2023-11-21T02:03:46;14.23;;;13.73;;
22068;SDS011;13887;57.196;-2.100;2023-11-21T02:06:13;14.17;;;13.67;;
22068;SDS011;13887;57.196;-2.100;2023-11-21T02:08:40;14.40;;;13.90;;
22068;SDS011;13887;57.196;-2.100;2023-11-21T02:11:11;14.67;;;14.17;;
22068;SDS011;13887;57.196;-2.100;2023-11-21T02:13:40;14.37;;;13.87;;
22068;SDS011;13887;57.196;-2.100;2023-11-21T02:16:11;14.37;;;13.87;;
22068;SDS011;13887;57.196;-2.100;2023-11-21T02:18:39;14.70;;;14.20;;
22068;SDS011;13887;57.196;-2.100;2023-11-21T02:21:06;14.47;;;13.97;;
22068;SDS011;13887;57.196;-2.100;2023-11-21T02:23:33;14.70;;;14.20;;
22068;SDS011;13887;57.196;-2.100;2023-11-21T02:25:59;14.37;;;13.87;;
22068;SDS011;13887;57.196;-2.100;2023-11-21T02:28:30;14.53;;;14.03;;
22068;SDS011;13887;57.196;-2.100;2023-11-21T02:30:57;14.60;;;14.10;;
22068;SDS011;13887;57.196;-2.100;2023-11-21T02:33:25;14.40;;;13.90;;
22068;SDS011;13887;57.196;-2.100;2023-11-21T02:35:51;14.77;;;14.27;;
22068;SDS011;13887;57.196;-2.100;2023-11-21T02:38:21;14.60;;;14.10;;
22068;SDS011;13887;57.196;-2.100;2023-11-21T02:40:47;14.40;;;13.90;;
22068;SDS011;13887;57.196;-2.100;2023-11-21T02:43:15;14.33;;;13.83;;
22068;SDS011;13887;57.196;-2.100;2023-11-21T02:45:41;14.60;;;14.10;;
22068;SDS011;13887;57.196;-2.100;2023-11-21T02:48:08;14.37;;;13.87;;
22068;SDS011;13887;57.196;-2.100;2023-11-21T02:50:35;14.33;;;13.83;;
22068;SDS011;13887;57.196;-2.100;2023-11-21T02:53:01;14.17;;;13.67;;
22068;SDS011;13887;57.196;-2.100;2023-11-21T02:55:28;13.93;;;13.43;;
22068;SDS011;13887;57.196;-2.100;2023-11-21T02:57:55;14.13;;;13.63;;
22068;SDS011;13887;57.196;-2.100;2023-11-21T03:00:24;14.43;;;13.93;;
22068;SDS011;13887;57.196;-2.100;2023-11-21T03:02:51;14.40;;;13.90;;
22068;SDS011;13887;57.196;-2.100;2023-11-21T03:05:19;14.20;;;13.70;;
22068;SDS011;13887;57.196;-2.100;2023-11-21T03:07:46;14.43;;;13.93;;
22068;SDS011;13887;57.196;-2.100;2023-11-21T03:10:13;14.37;;;13.87;;
22068;SDS011;13887;57.196;-2.100;2023-11-21T03:12:40;14.40;;;13.90;;
22068;SDS011;13887;57.196;-2.100;2023-11-21T03:15:06;14.67;;;14.17;;
22068;SDS011;13887;57.196;-2.100;2023-11-21T03:17:34;14.40;;;13.90;;
22068;SDS011;13887;57.196;-2.100;2023-11-21T03:20:02;14.13;;;13.63;;
22068;SDS011;13887;57.196;-2.100;2023-11-21T03:22:30;14.07;;;13.57;;
22068;SDS011;13887;57.196;-2.100;2023-11-21T03:24:58;14.30;;;13.80;;
22068;SDS011;13887;57.196;-2.100;2023-11-21T03:27:24;14.27;;;13.77;;
22068;SDS011;13887;57.196;-2.100;2023-11-21T03:29:51;13.90;;;13.40;;
22068;SDS011;13887;57.196;-2.100;2023-11-21T03:32:18;13.57;;;13.07;;
22068;SDS011;13887;57.196;-2.100;2023-11-21T03:34:58;13.97;;;13.47;;
22068;SDS011;13887;57.196;-2.100;2023-11-21T03:37:26;13.60;;;13.10;;
22068;SDS011;13887;57.196;-2.100;2023-11-21T03:39:54;14.53;;;14.03;;
22068;SDS011;13887;57.196;-2.100;2023-11-21T03:42:22;13.83;;;13.33;;
22068;SDS011;13887;57.196;-2.100;2023-11-21T03:44:48;13.93;;;13.43;;
22068;SDS011;13887;57.196;-2.100;2023-11-21T03:47:15;13.90;;;13.40;;
22068;SDS011;13887;57.196;-2.100;2023-11-21T03:49:41;13.83;;;13.33;;
22068;SDS011;13887;57.196;-2.100;2023-11-21T03:52:08;14.00;;;13.50;;
22068;SDS011;13887;57.196;-2.100;2023-11-21T03:54:35;14.10;;;13.60;;
22068;SDS011;13887;57.196;-2.100;2023-11-21T03:57:02;13.90;;;13.40;;
22068;SDS011;13887;57.196;-2.100;2023-11-21T03:59:29;14.27;;;13.77;;
22068;SDS011;13887;57.196;-2.100;2023-11-21T04:01:56;14.13;;;13.63;;
22068;SDS011;13887;57.196;-2.100;2023-11-21T04:04:23;14.10;;;13.60;;
22068;SDS011;13887;57.196;-2.100;2023-11-21T04:06:50;13.60;;;13.10;;
22068;SDS011;13887;57.196;-2.100;2023-11-21T04:09:17;13.67;;;13.17;;
22068;SDS011;13887;57.196;-2.100;2023-11-21T04:11:44;13.77;;;13.27;;
22068;SDS011;13887;57.196;-2.100;2023-11-21T04:14:11;13.97;;;13.47;;
22068;SDS011;13887;57.196;-2.100;2023-11-21T04:16:38;13.97;;;13.47;;
22068;SDS011;13887;57.196;-2.100;2023-11-21T04:19:05;13.87;;;13.37;;
22068;SDS011;13887;57.196;-2.100;2023-11-21T04:21:31;13.80;;;13.30;;
22068;SDS011;13887;57.196;-2.100;2023-11-21T04:23:59;13.83;;;13.33;;
22068;SDS011;13887;57.196;-2.100;2023-11-21T04:26:25;13.80;;;13.30;;
22068;SDS011;13887;57.196;-2.100;2023-11-21T04:28:52;13.63;;;13.13;;
22068;SDS011;13887;57.196;-2.100;2023-11-21T04:31:19;13.80;;;13.30;;
22068;SDS011;13887;57.196;-2.100;2023-11-21T04:33:45;13.73;;;13.23;;
22068;SDS011;13887;57.196;-2.100;2023-11-21T04:36:12;14.13;;;13.63;;
22068;SDS011;13887;57.196;-2.100;2023-11-21T04:38:39;13.97;;;13.47;;
22068;SDS011;13887;57.196;-2.100;2023-11-21T04:41:09;14.23;;;13.73;;
22068;SDS011;13887;57.196;-2.100;2023-11-21T04:43:35;14.40;;;13.90;;
22068;SDS011;13887;57.196;-2.100;2023-11-21T04:46:02;14.13;;;13.63;;
22068;SDS011;13887;57.196;-2.100;2023-11-21T04:48:29;14.20;;;13.70;;
22068;SDS011;13887;57.196;-2.100;2023-11-21T04:50:55;14.23;;;13.73;;
22068;SDS011;13887;57.196;-2.100;2023-11-21T04:53:22;14.20;;;13.70;;
22068;SDS011;13887;57.196;-2.100;2023-11-21T04:55:48;13.87;;;13.37;;
22068;SDS011;13887;57.196;-2.100;2023-11-21T04:58:15;13.73;;;13.23;;
22068;SDS011;13887;57.196;-2.100;2023-11-21T05:00:42;14.43;;;13.93;;
22068;SDS011;13887;57.196;-2.100;2023-11-21T05:03:09;14.37;;;13.87;;
22068;SDS011;13887;57.196;-2.100;2023-11-21T05:05:36;14.37;;;13.87;;
22068;SDS011;13887;57.196;-2.100;2023-11-21T05:08:02;14.40;;;13.90;;
22068;SDS011;13887;57.196;-2.100;2023-11-21T05:10:29;14.43;;;13.93;;
22068;SDS011;13887;57.196;-2.100;2023-11-21T05:12:56;14.37;;;13.87;;
22068;SDS011;13887;57.196;-2.100;2023-11-21T05:15:23;14.67;;;14.17;;
22068;SDS011;13887;57.196;-2.100;2023-11-21T05:17:50;14.57;;;14.07;;
22068;SDS011;13887;57.196;-2.100;2023-11-21T05:20:18;14.27;;;13.77;;
22068;SDS011;13887;57.196;-2.100;2023-11-21T05:22:47;14.00;;;13.50;;
22068;SDS011;13887;57.196;-2.100;2023-11-21T05:25:17;14.60;;;14.10;;
22068;SDS011;13887;57.196;-2.100;2023-11-21T05:27:47;14.40;;;13.90;;
22068;SDS011;13887;57.196;-2.100;2023-11-21T05:30:13;14.37;;;13.87;;
22068;SDS011;13887;57.196;-2.100;2023-11-21T05:32:41;14.57;;;14.07;;
22068;SDS011;13887;57.196;-2.100;2023-11-21T05:35:12;14.83;;;14.33;;
22068;SDS011;13887;57.196;-2.100;2023-11-21T05:37:44;14.70;;;14.20;;
22068;SDS011;13887;57.196;-2.100;2023-11-21T05:40:11;14.90;;;14.40;;
22068;SDS011;13887;57.196;-2.100;2023-11-21T05:42:39;14.67;;;14.17;;
22068;SDS011;13887;57.196;-2.100;2023-11-21T05:45:07;15.17;;;14.57;;
22068;SDS011;13887;57.196;-2.100;2023-11-21T05:47:38;15.03;;;14.47;;
22068;SDS011;13887;57.196;-2.100;2023-11-21T05:50:10;14.87;;;14.37;;
22068;SDS011;13887;57.196;-2.100;2023-11-21T05:52:38;14.73;;;14.23;;
22068;SDS011;13887;57.196;-2.100;2023-11-21T05:55:08;15.23;;;14.63;;
22068;SDS011;13887;57.196;-2.100;2023-11-21T05:57:38;15.20;;;14.60;;
22068;SDS011;13887;57.196;-2.100;2023-11-21T06:00:09;15.20;;;14.60;;
22068;SDS011;13887;57.196;-2.100;2023-11-21T06:02:58;15.17;;;14.57;;
22068;SDS011;13887;57.196;-2.100;2023-11-21T06:05:25;15.17;;;14.57;;
22068;SDS011;13887;57.196;-2.100;2023-11-21T06:07:53;15.17;;;14.57;;
22068;SDS011;13887;57.196;-2.100;2023-11-21T06:10:25;15.43;;;14.83;;
22068;SDS011;13887;57.196;-2.100;2023-11-21T06:12:52;15.30;;;14.70;;
22068;SDS011;13887;57.196;-2.100;2023-11-21T06:15:19;15.20;;;14.60;;
22068;SDS011;13887;57.196;-2.100;2023-11-21T06:17:47;15.17;;;14.57;;
22068;SDS011;13887;57.196;-2.100;2023-11-21T06:20:18;14.77;;;14.27;;
22068;SDS011;13887;57.196;-2.100;2023-11-21T06:22:46;14.77;;;14.27;;
22068;SDS011;13887;57.196;-2.100;2023-11-21T06:25:13;15.37;;;14.77;;
22068;SDS011;13887;57.196;-2.100;2023-11-21T06:27:41;15.20;;;14.60;;
22068;SDS011;13887;57.196;-2.100;2023-11-21T06:30:08;15.37;;;14.77;;
22068;SDS011;13887;57.196;-2.100;2023-11-21T06:32:36;15.43;;;14.83;;
22068;SDS011;13887;57.196;-2.100;2023-11-21T06:35:03;15.53;;;14.93;;
22068;SDS011;13887;57.196;-2.100;2023-11-21T06:37:31;15.27;;;14.67;;
22068;SDS011;13887;57.196;-2.100;2023-11-21T06:39:58;15.30;;;14.70;;
22068;SDS011;13887;57.196;-2.100;2023-11-21T06:42:26;15.10;;;14.50;;
22068;SDS011;13887;57.196;-2.100;2023-11-21T06:44:55;14.80;;;14.30;;
22068;SDS011;13887;57.196;-2.100;2023-11-21T06:47:25;14.80;;;14.30;;
22068;SDS011;13887;57.196;-2.100;2023-11-21T06:49:52;14.60;;;14.10;;
22068;SDS011;13887;57.196;-2.100;2023-11-21T06:52:19;15.17;;;14.57;;
22068;SDS011;13887;57.196;-2.100;2023-11-21T06:54:46;14.70;;;14.20;;
22068;SDS011;13887;57.196;-2.100;2023-11-21T06:57:13;15.23;;;14.63;;
22068;SDS011;13887;57.196;-2.100;2023-11-21T06:59:40;15.30;;;14.70;;
22068;SDS011;13887;57.196;-2.100;2023-11-21T07:02:07;15.37;;;14.77;;
22068;SDS011;13887;57.196;-2.100;2023-11-21T07:04:34;15.50;;;14.90;;
22068;SDS011;13887;57.196;-2.100;2023-11-21T07:07:01;15.10;;;14.50;;
22068;SDS011;13887;57.196;-2.100;2023-11-21T07:09:28;15.60;;;15.00;;
22068;SDS011;13887;57.196;-2.100;2023-11-21T07:11:55;15.20;;;14.60;;
22068;SDS011;13887;57.196;-2.100;2023-11-21T07:14:22;15.17;;;14.57;;
22068;SDS011;13887;57.196;-2.100;2023-11-21T07:16:49;14.60;;;14.10;;
22068;SDS011;13887;57.196;-2.100;2023-11-21T07:19:15;15.07;;;14.53;;
22068;SDS011;13887;57.196;-2.100;2023-11-21T07:21:42;15.00;;;14.50;;
22068;SDS011;13887;57.196;-2.100;2023-11-21T07:24:09;15.10;;;14.60;;
22068;SDS011;13887;57.196;-2.100;2023-11-21T07:26:35;15.40;;;14.80;;
22068;SDS011;13887;57.196;-2.100;2023-11-21T07:29:02;15.23;;;14.67;;
22068;SDS011;13887;57.196;-2.100;2023-11-21T07:31:29;15.27;;;14.67;;
22068;SDS011;13887;57.196;-2.100;2023-11-21T07:33:56;15.07;;;14.57;;
22068;SDS011;13887;57.196;-2.100;2023-11-21T07:36:23;15.30;;;14.70;;
22068;SDS011;13887;57.196;-2.100;2023-11-21T07:38:50;15.10;;;14.57;;
22068;SDS011;13887;57.196;-2.100;2023-11-21T07:41:17;15.37;;;14.77;;
22068;SDS011;13887;57.196;-2.100;2023-11-21T07:43:56;15.43;;;14.83;;
22068;SDS011;13887;57.196;-2.100;2023-11-21T07:46:23;14.90;;;14.40;;
22068;SDS011;13887;57.196;-2.100;2023-11-21T07:48:50;15.27;;;14.67;;
22068;SDS011;13887;57.196;-2.100;2023-11-21T07:51:18;15.10;;;14.57;;
22068;SDS011;13887;57.196;-2.100;2023-11-21T07:53:45;14.97;;;14.47;;
22068;SDS011;13887;57.196;-2.100;2023-11-21T07:56:11;15.67;;;15.07;;
22068;SDS011;13887;57.196;-2.100;2023-11-21T07:58:39;15.67;;;15.07;;
22068;SDS011;13887;57.196;-2.100;2023-11-21T08:01:05;15.40;;;14.80;;
22068;SDS011;13887;57.196;-2.100;2023-11-21T08:03:32;15.73;;;15.13;;
22068;SDS011;13887;57.196;-2.100;2023-11-21T08:05:59;15.00;;;14.50;;
22068;SDS011;13887;57.196;-2.100;2023-11-21T08:08:26;15.17;;;14.60;;
22068;SDS011;13887;57.196;-2.100;2023-11-21T08:10:53;14.40;;;13.90;;
22068;SDS011;13887;57.196;-2.100;2023-11-21T08:13:23;15.10;;;14.53;;
22068;SDS011;13887;57.196;-2.100;2023-11-21T08:15:53;14.70;;;14.20;;
22068;SDS011;13887;57.196;-2.100;2023-11-21T08:18:20;14.83;;;14.33;;
22068;SDS011;13887;57.196;-2.100;2023-11-21T08:20:47;15.13;;;14.63;;
22068;SDS011;13887;57.196;-2.100;2023-11-21T08:23:15;15.30;;;14.70;;
22068;SDS011;13887;57.196;-2.100;2023-11-21T08:25:44;14.70;;;14.20;;
22068;SDS011;13887;57.196;-2.100;2023-11-21T08:28:12;14.80;;;14.30;;
22068;SDS011;13887;57.196;-2.100;2023-11-21T08:30:40;14.77;;;14.27;;
22068;SDS011;13887;57.196;-2.100;2023-11-21T08:33:07;15.00;;;14.50;;
22068;SDS011;13887;57.196;-2.100;2023-11-21T08:35:38;14.80;;;14.30;;
22068;SDS011;13887;57.196;-2.100;2023-11-21T08:38:04;14.83;;;14.33;;
22068;SDS011;13887;57.196;-2.100;2023-11-21T08:40:31;14.50;;;14.00;;
22068;SDS011;13887;57.196;-2.100;2023-11-21T08:42:58;14.43;;;13.93;;
22068;SDS011;13887;57.196;-2.100;2023-11-21T08:45:30;14.03;;;13.53;;
22068;SDS011;13887;57.196;-2.100;2023-11-21T08:47:58;14.57;;;14.07;;
22068;SDS011;13887;57.196;-2.100;2023-11-21T08:50:25;14.37;;;13.87;;
22068;SDS011;13887;57.196;-2.100;2023-11-21T08:52:51;14.43;;;13.93;;
22068;SDS011;13887;57.196;-2.100;2023-11-21T08:55:18;14.40;;;13.90;;
22068;SDS011;13887;57.196;-2.100;2023-11-21T08:57:46;14.50;;;14.00;;
22068;SDS011;13887;57.196;-2.100;2023-11-21T09:00:13;14.03;;;13.53;;
22068;SDS011;13887;57.196;-2.100;2023-11-21T09:02:42;14.00;;;13.50;;
22068;SDS011;13887;57.196;-2.100;2023-11-21T09:05:10;14.40;;;13.90;;
22068;SDS011;13887;57.196;-2.100;2023-11-21T09:07:38;14.60;;;14.10;;
22068;SDS011;13887;57.196;-2.100;2023-11-21T09:10:07;14.93;;;14.43;;
22068;SDS011;13887;57.196;-2.100;2023-11-21T09:12:36;14.83;;;14.33;;
22068;SDS011;13887;57.196;-2.100;2023-11-21T09:15:06;14.70;;;14.20;;
22068;SDS011;13887;57.196;-2.100;2023-11-21T09:17:33;14.70;;;14.20;;
22068;SDS011;13887;57.196;-2.100;2023-11-21T09:20:01;14.43;;;13.93;;
22068;SDS011;13887;57.196;-2.100;2023-11-21T09:22:31;14.90;;;14.40;;
22068;SDS011;13887;57.196;-2.100;2023-11-21T09:24:58;14.60;;;14.10;;
22068;SDS011;13887;57.196;-2.100;2023-11-21T09:27:25;14.17;;;13.67;;
22068;SDS011;13887;57.196;-2.100;2023-11-21T09:29:52;14.37;;;13.87;;
22068;SDS011;13887;57.196;-2.100;2023-11-21T09:32:20;14.50;;;14.00;;
22068;SDS011;13887;57.196;-2.100;2023-11-21T09:34:50;14.47;;;13.97;;
22068;SDS011;13887;57.196;-2.100;2023-11-21T09:37:17;14.87;;;14.37;;
22068;SDS011;13887;57.196;-2.100;2023-11-21T09:39:45;15.00;;;14.50;;
22068;SDS011;13887;57.196;-2.100;2023-11-21T09:42:15;14.87;;;14.37;;
22068;SDS011;13887;57.196;-2.100;2023-11-21T09:47:35;14.77;;;14.27;;
22068;SDS011;13887;57.196;-2.100;2023-11-21T09:50:03;14.33;;;13.83;;
22068;SDS011;13887;57.196;-2.100;2023-11-21T09:52:36;14.37;;;13.87;;
22068;SDS011;13887;57.196;-2.100;2023-11-21T09:55:14;14.77;;;14.27;;
22068;SDS011;13887;57.196;-2.100;2023-11-21T09:57:45;14.23;;;13.73;;
22068;SDS011;13887;57.196;-2.100;2023-11-21T10:00:11;14.20;;;13.70;;
22068;SDS011;13887;57.196;-2.100;2023-11-21T10:02:41;15.00;;;14.50;;
22068;SDS011;13887;57.196;-2.100;2023-11-21T10:05:08;14.70;;;14.20;;
22068;SDS011;13887;57.196;-2.100;2023-11-21T10:07:38;14.40;;;13.90;;
22068;SDS011;13887;57.196;-2.100;2023-11-21T10:10:06;14.73;;;14.23;;
22068;SDS011;13887;57.196;-2.100;2023-11-21T10:12:35;14.60;;;14.10;;
22068;SDS011;13887;57.196;-2.100;2023-11-21T10:15:02;14.60;;;14.10;;
22068;SDS011;13887;57.196;-2.100;2023-11-21T10:17:32;14.90;;;14.40;;
22068;SDS011;13887;57.196;-2.100;2023-11-21T10:20:12;14.70;;;14.20;;
22068;SDS011;13887;57.196;-2.100;2023-11-21T10:22:40;14.40;;;13.90;;
22068;SDS011;13887;57.196;-2.100;2023-11-21T10:25:10;14.73;;;14.23;;
22068;SDS011;13887;57.196;-2.100;2023-11-21T10:27:40;14.40;;;13.90;;
22068;SDS011;13887;57.196;-2.100;2023-11-21T10:30:07;14.87;;;14.33;;
22068;SDS011;13887;57.196;-2.100;2023-11-21T10:32:44;14.80;;;14.30;;
22068;SDS011;13887;57.196;-2.100;2023-11-21T10:35:11;14.50;;;14.00;;
22068;SDS011;13887;57.196;-2.100;2023-11-21T10:37:38;15.37;;;14.77;;
22068;SDS011;13887;57.196;-2.100;2023-11-21T10:40:12;14.20;;;13.70;;
22068;SDS011;13887;57.196;-2.100;2023-11-21T10:42:39;14.40;;;13.90;;
22068;SDS011;13887;57.196;-2.100;2023-11-21T10:45:08;14.57;;;14.07;;
22068;SDS011;13887;57.196;-2.100;2023-11-21T10:47:40;14.30;;;13.80;;
22068;SDS011;13887;57.196;-2.100;2023-11-21T10:50:08;13.80;;;13.30;;
22068;SDS011;13887;57.196;-2.100;2023-11-21T10:52:37;14.90;;;14.40;;
22068;SDS011;13887;57.196;-2.100;2023-11-21T10:55:16;14.73;;;14.23;;
22068;SDS011;13887;57.196;-2.100;2023-11-21T10:57:45;14.40;;;13.90;;
22068;SDS011;13887;57.196;-2.100;2023-11-21T11:00:15;14.30;;;13.80;;
22068;SDS011;13887;57.196;-2.100;2023-11-21T11:02:45;14.23;;;13.73;;
22068;SDS011;13887;57.196;-2.100;2023-11-21T11:05:23;14.43;;;13.93;;
22068;SDS011;13887;57.196;-2.100;2023-11-21T11:07:50;14.57;;;14.07;;
22068;SDS011;13887;57.196;-2.100;2023-11-21T11:10:21;14.37;;;13.87;;
22068;SDS011;13887;57.196;-2.100;2023-11-21T11:12:53;14.60;;;14.10;;
22068;SDS011;13887;57.196;-2.100;2023-11-21T11:15:21;14.80;;;14.30;;
22068;SDS011;13887;57.196;-2.100;2023-11-21T11:17:48;14.20;;;13.70;;
22068;SDS011;13887;57.196;-2.100;2023-11-21T11:20:16;14.23;;;13.73;;
22068;SDS011;13887;57.196;-2.100;2023-11-21T11:22:48;14.17;;;13.67;;
22068;SDS011;13887;57.196;-2.100;2023-11-21T11:25:27;13.90;;;13.40;;
22068;SDS011;13887;57.196;-2.100;2023-11-21T11:28:32;13.70;;;13.20;;
22068;SDS011;13887;57.196;-2.100;2023-11-21T11:33:47;13.90;;;13.40;;
22068;SDS011;13887;57.196;-2.100;2023-11-21T11:36:26;13.27;;;12.87;;
22068;SDS011;13887;57.196;-2.100;2023-11-21T11:38:58;13.43;;;12.97;;
22068;SDS011;13887;57.196;-2.100;2023-11-21T11:41:29;13.17;;;12.77;;
22068;SDS011;13887;57.196;-2.100;2023-11-21T11:43:59;13.03;;;12.63;;
22068;SDS011;13887;57.196;-2.100;2023-11-21T11:46:42;13.73;;;13.23;;
22068;SDS011;13887;57.196;-2.100;2023-11-21T11:49:25;13.40;;;12.97;;
22068;SDS011;13887;57.196;-2.100;2023-11-21T11:54:59;13.87;;;13.37;;
22068;SDS011;13887;57.196;-2.100;2023-11-21T11:57:26;13.83;;;13.33;;
22068;SDS011;13887;57.196;-2.100;2023-11-21T12:02:49;13.30;;;12.90;;
22068;SDS011;13887;57.196;-2.100;2023-11-21T12:05:18;14.37;;;13.87;;
22068;SDS011;13887;57.196;-2.100;2023-11-21T12:07:47;13.83;;;13.33;;
22068;SDS011;13887;57.196;-2.100;2023-11-21T12:10:21;13.53;;;13.03;;
22068;SDS011;13887;57.196;-2.100;2023-11-21T12:15:21;13.07;;;12.67;;
22068;SDS011;13887;57.196;-2.100;2023-11-21T12:17:49;13.10;;;12.70;;
22068;SDS011;13887;57.196;-2.100;2023-11-21T12:20:20;13.60;;;13.10;;
22068;SDS011;13887;57.196;-2.100;2023-11-21T12:22:51;13.80;;;13.30;;
22068;SDS011;13887;57.196;-2.100;2023-11-21T12:25:19;13.40;;;13.00;;
22068;SDS011;13887;57.196;-2.100;2023-11-21T12:27:51;13.40;;;13.00;;
22068;SDS011;13887;57.196;-2.100;2023-11-21T12:30:19;13.60;;;13.10;;
22068;SDS011;13887;57.196;-2.100;2023-11-21T12:32:49;13.17;;;12.77;;
22068;SDS011;13887;57.196;-2.100;2023-11-21T12:35:21;13.70;;;13.20;;
22068;SDS011;13887;57.196;-2.100;2023-11-21T12:37:51;13.83;;;13.33;;
22068;SDS011;13887;57.196;-2.100;2023-11-21T12:40:19;13.20;;;12.80;;
22068;SDS011;13887;57.196;-2.100;2023-11-21T12:42:51;13.27;;;12.87;;
22068;SDS011;13887;57.196;-2.100;2023-11-21T12:45:23;13.13;;;12.73;;
22068;SDS011;13887;57.196;-2.100;2023-11-21T12:48:02;13.17;;;12.77;;
22068;SDS011;13887;57.196;-2.100;2023-11-21T12:50:34;13.73;;;13.23;;
22068;SDS011;13887;57.196;-2.100;2023-11-21T12:53:03;13.23;;;12.83;;
22068;SDS011;13887;57.196;-2.100;2023-11-21T12:55:32;13.20;;;12.80;;
22068;SDS011;13887;57.196;-2.100;2023-11-21T12:58:08;13.53;;;13.03;;
22068;SDS011;13887;57.196;-2.100;2023-11-21T13:00:42;13.67;;;13.17;;
22068;SDS011;13887;57.196;-2.100;2023-11-21T13:03:12;13.60;;;13.10;;
22068;SDS011;13887;57.196;-2.100;2023-11-21T13:05:43;13.90;;;13.40;;
22068;SDS011;13887;57.196;-2.100;2023-11-21T13:08:14;13.90;;;13.40;;
22068;SDS011;13887;57.196;-2.100;2023-11-21T13:10:45;13.57;;;13.07;;
22068;SDS011;13887;57.196;-2.100;2023-11-21T13:13:14;13.60;;;13.10;;
22068;SDS011;13887;57.196;-2.100;2023-11-21T13:15:47;13.73;;;13.23;;
22068;SDS011;13887;57.196;-2.100;2023-11-21T13:18:15;13.47;;;12.97;;
22068;SDS011;13887;57.196;-2.100;2023-11-21T13:20:43;13.67;;;13.17;;
22068;SDS011;13887;57.196;-2.100;2023-11-21T13:23:10;14.07;;;13.57;;
22068;SDS011;13887;57.196;-2.100;2023-11-21T13:25:42;13.63;;;13.13;;
22068;SDS011;13887;57.196;-2.100;2023-11-21T13:28:19;13.67;;;13.17;;
22068;SDS011;13887;57.196;-2.100;2023-11-21T13:30:48;13.70;;;13.20;;
22068;SDS011;13887;57.196;-2.100;2023-11-21T13:33:18;13.90;;;13.40;;
22068;SDS011;13887;57.196;-2.100;2023-11-21T13:35:48;13.70;;;13.20;;
22068;SDS011;13887;57.196;-2.100;2023-11-21T13:38:16;13.97;;;13.47;;
22068;SDS011;13887;57.196;-2.100;2023-11-21T13:40:46;14.00;;;13.50;;
22068;SDS011;13887;57.196;-2.100;2023-11-21T13:43:16;13.87;;;13.37;;
22068;SDS011;13887;57.196;-2.100;2023-11-21T13:45:48;13.87;;;13.37;;
22068;SDS011;13887;57.196;-2.100;2023-11-21T13:48:25;13.63;;;13.13;;
22068;SDS011;13887;57.196;-2.100;2023-11-21T13:51:07;14.00;;;13.50;;
22068;SDS011;13887;57.196;-2.100;2023-11-21T13:53:43;13.60;;;13.10;;
22068;SDS011;13887;57.196;-2.100;2023-11-21T13:56:13;13.80;;;13.30;;
22068;SDS011;13887;57.196;-2.100;2023-11-21T13:58:44;13.90;;;13.40;;
22068;SDS011;13887;57.196;-2.100;2023-11-21T14:01:18;13.70;;;13.20;;
22068;SDS011;13887;57.196;-2.100;2023-11-21T14:04:02;13.60;;;13.10;;
22068;SDS011;13887;57.196;-2.100;2023-11-21T14:06:48;15.07;;;14.47;;
22068;SDS011;13887;57.196;-2.100;2023-11-21T14:09:17;13.33;;;12.90;;
22068;SDS011;13887;57.196;-2.100;2023-11-21T14:11:49;13.57;;;13.07;;
22068;SDS011;13887;57.196;-2.100;2023-11-21T14:14:18;13.27;;;12.87;;
22068;SDS011;13887;57.196;-2.100;2023-11-21T14:16:46;13.70;;;13.20;;
22068;SDS011;13887;57.196;-2.100;2023-11-21T14:19:12;13.37;;;12.90;;
22068;SDS011;13887;57.196;-2.100;2023-11-21T14:21:43;13.97;;;13.47;;
22068;SDS011;13887;57.196;-2.100;2023-11-21T14:24:11;14.00;;;13.50;;
22068;SDS011;13887;57.196;-2.100;2023-11-21T14:26:41;14.10;;;13.60;;
22068;SDS011;13887;57.196;-2.100;2023-11-21T14:29:09;13.83;;;13.33;;
22068;SDS011;13887;57.196;-2.100;2023-11-21T14:31:38;14.00;;;13.50;;